Terminal Aerodrome Forecast
Issued by NWS Amarillo, TX

Home | Current Version | Previous Version | Text Only | Print | Product List | Glossary On
Versions: 1 2 3 4 5 6 7 8 9 10 11 12 13 14
000
FTUS44 KAMA 300500
TAFAMA
TAF
KAMA 300521Z 3006/3106 14009KT P6SM SCT100 OVC300
     FM301500 17011KT P6SM OVC050
     FM302100 18011KT P6SM OVC015
      TEMPO 3021/3101 5SM -RASN BR
     FM310100 17012KT 5SM -RASN BR OVC010=

USA.gov is the U.S. government's official web portal to all federal, state and local government web resources and services.